METAR Data
IDs: Format: Raw Decoded Include TAF

Data at: 1839 UTC 26 Sep 2021

LFSB 261830Z AUTO 24004KT 9999 SCT035/// SCT054/// BKN088/// ///CB 17/15 Q1019 BECMG FEW030 SCT060